Terminal Aerodrome Forecast
Issued by NWS Newport/Morehead City, NC

Home | Current Version | Previous Version | Text Only | Print | Product List | Glossary Off
Versions: 1 2 3 4 5 6 7 8 9 10 11 12 13

839
FTUS42 KMHX 290540
TAFEWN
TAF
KEWN 290540Z 2906/3006 27007KT P6SM SCT250
     FM291900 24008KT P6SM SCT050
     FM300300 21005KT P6SM BKN050=

USA.gov is the U.S. government's official web portal to all federal, state and local government web resources and services.